Time,TemperatureF,DewpointF,PressureIn,WindDirection,WindDirectionDegrees,WindSpeedMPH,WindSpeedGustMPH,Humidity,HourlyPrecipIn,Conditions,Clouds,dailyrainin,SolarRadiationWatts/m^2,SoftwareType,DateUTC
2013-05-06 00:12:00,53.4,47.0,30.04,NE,34,3.0,3.0,78,0.00,,,0.00,0,weatherlink.com 1.10,2013-05-06 05:12:00,
2013-05-06 00:27:00,53.2,47.0,30.04,NE,34,0.0,3.0,79,0.00,,,0.00,0,weatherlink.com 1.10,2013-05-06 05:27:00,
2013-05-06 00:42:00,53.5,47.0,30.05,NE,34,1.0,2.0,79,0.00,,,0.00,0,weatherlink.com 1.10,2013-05-06 05:42:00,
2013-05-06 00:57:00,53.0,47.0,30.04,NNE,33,0.0,1.0,80,0.00,,,0.00,0,weatherlink.com 1.10,2013-05-06 05:57:00,
2013-05-06 01:12:00,53.0,47.0,30.04,NE,34,0.0,0.0,81,0.00,,,0.00,0,weatherlink.com 1.10,2013-05-06 06:12:00,
2013-05-06 01:27:00,52.4,47.0,30.03,NE,34,0.0,0.0,81,0.00,,,0.00,0,weatherlink.com 1.10,2013-05-06 06:27:00,
2013-05-06 01:42:00,51.5,47.0,30.03,NE,34,0.0,1.0,83,0.00,,,0.00,0,weatherlink.com 1.10,2013-05-06 06:42:00,
2013-05-06 01:57:00,51.1,47.0,30.03,NE,34,2.0,3.0,85,0.00,,,0.00,0,weatherlink.com 1.10,2013-05-06 06:57:00,
2013-05-06 02:12:00,49.3,45.0,30.02,NE,34,2.0,3.0,86,0.00,,,0.00,0,weatherlink.com 1.10,2013-05-06 07:12:00,
2013-05-06 02:27:00,49.1,46.0,30.03,SW,230,5.0,8.0,88,0.00,,,0.00,0,weatherlink.com 1.10,2013-05-06 07:27:00,
2013-05-06 02:42:00,49.1,46.0,30.03,SW,228,3.0,6.0,88,0.00,,,0.00,0,weatherlink.com 1.10,2013-05-06 07:42:00,
2013-05-06 02:57:00,49.7,46.0,30.02,SW,228,2.0,3.0,88,0.00,,,0.00,0,weatherlink.com 1.10,2013-05-06 07:57:00,
2013-05-06 03:12:00,49.3,46.0,30.02,SW,228,4.0,4.0,87,0.00,,,0.00,0,weatherlink.com 1.10,2013-05-06 08:12:00,
2013-05-06 03:27:00,49.2,46.0,30.02,SW,228,1.0,4.0,87,0.00,,,0.00,0,weatherlink.com 1.10,2013-05-06 08:27:00,
2013-05-06 03:42:00,49.0,46.0,30.02,SW,228,2.0,3.0,88,0.00,,,0.00,0,weatherlink.com 1.10,2013-05-06 08:42:00,
2013-05-06 03:57:00,48.3,45.0,30.02,SW,228,2.0,3.0,87,0.00,,,0.00,0,weatherlink.com 1.10,2013-05-06 08:57:00,
2013-05-06 04:12:00,47.8,45.0,30.02,SW,228,1.0,2.0,88,0.00,,,0.00,0,weatherlink.com 1.10,2013-05-06 09:12:00,
2013-05-06 04:27:00,47.3,44.0,30.02,SW,228,2.0,3.0,89,0.00,,,0.00,0,weatherlink.com 1.10,2013-05-06 09:27:00,
2013-05-06 04:42:00,46.9,44.0,30.02,SW,228,2.0,2.0,89,0.00,,,0.00,0,weatherlink.com 1.10,2013-05-06 09:42:00,
2013-05-06 04:57:00,46.7,44.0,30.02,SW,228,1.0,3.0,90,0.00,,,0.00,0,weatherlink.com 1.10,2013-05-06 09:57:00,
2013-05-06 05:12:00,47.0,44.0,30.02,SW,228,4.0,5.0,90,0.00,,,0.00,0,weatherlink.com 1.10,2013-05-06 10:12:00,
2013-05-06 05:28:00,47.8,45.0,30.03,WSW,243,6.0,8.0,89,0.00,,,0.00,0,weatherlink.com 1.10,2013-05-06 10:28:00,
2013-05-06 05:43:00,48.3,45.0,30.03,WSW,243,4.0,7.0,89,0.00,,,0.00,0,weatherlink.com 1.10,2013-05-06 10:43:00,
2013-05-06 05:58:00,48.5,46.0,30.03,WSW,243,1.0,4.0,89,0.00,,,0.00,0,weatherlink.com 1.10,2013-05-06 10:58:00,
2013-05-06 06:13:00,48.9,46.0,30.04,WSW,243,0.0,3.0,89,0.00,,,0.00,0,weatherlink.com 1.10,2013-05-06 11:13:00,
2013-05-06 06:28:00,48.9,46.0,30.04,WSW,243,2.0,3.0,89,0.00,,,0.00,0,weatherlink.com 1.10,2013-05-06 11:28:00,
2013-05-06 06:43:00,49.0,46.0,30.04,WSW,243,2.0,3.0,90,0.00,,,0.00,7,weatherlink.com 1.10,2013-05-06 11:43:00,
2013-05-06 06:58:00,49.1,46.0,30.05,WSW,243,1.0,2.0,90,0.00,,,0.00,18,weatherlink.com 1.10,2013-05-06 11:58:00,
2013-05-06 07:13:00,49.8,47.0,30.05,WSW,243,0.0,2.0,90,0.00,,,0.00,33,weatherlink.com 1.10,2013-05-06 12:13:00,
2013-05-06 07:28:00,49.7,46.0,30.05,WSW,241,1.0,4.0,88,0.00,,,0.00,76,weatherlink.com 1.10,2013-05-06 12:28:00,
2013-05-06 07:43:00,49.5,46.0,30.06,WSW,241,3.0,5.0,89,0.00,,,0.00,135,weatherlink.com 1.10,2013-05-06 12:43:00,
2013-05-06 07:58:00,51.3,48.0,30.06,WSW,242,2.0,5.0,88,0.00,,,0.00,195,weatherlink.com 1.10,2013-05-06 12:58:00,
2013-05-06 08:13:00,53.1,49.0,30.06,SW,231,1.0,5.0,85,0.00,,,0.00,250,weatherlink.com 1.10,2013-05-06 13:13:00,
2013-05-06 08:28:00,54.6,49.0,30.06,SW,231,4.0,5.0,82,0.00,,,0.00,304,weatherlink.com 1.10,2013-05-06 13:28:00,
2013-05-06 08:43:00,56.1,50.0,30.06,SW,234,2.0,5.0,81,0.00,,,0.00,362,weatherlink.com 1.10,2013-05-06 13:43:00,
2013-05-06 08:58:00,59.0,52.0,30.06,WNW,299,4.0,5.0,78,0.00,,,0.00,411,weatherlink.com 1.10,2013-05-06 13:58:00,
2013-05-06 09:13:00,61.9,52.0,30.06,NW,316,4.0,8.0,69,0.00,,,0.00,459,weatherlink.com 1.10,2013-05-06 14:13:00,
2013-05-06 09:28:00,63.6,51.0,30.06,North,354,5.0,8.0,64,0.00,,,0.00,485,weatherlink.com 1.10,2013-05-06 14:28:00,
2013-05-06 09:43:00,64.4,51.0,30.06,NNW,330,7.0,11.0,63,0.00,,,0.00,570,weatherlink.com 1.10,2013-05-06 14:43:00,
2013-05-06 09:58:00,65.5,51.0,30.06,WNW,293,5.0,10.0,60,0.00,,,0.00,605,weatherlink.com 1.10,2013-05-06 14:58:00,
2013-05-06 10:13:00,65.9,51.0,30.06,NNW,338,6.0,13.0,58,0.00,,,0.00,654,weatherlink.com 1.10,2013-05-06 15:13:00,
2013-05-06 10:29:00,66.5,51.0,30.06,NW,312,4.0,11.0,58,0.00,,,0.00,684,weatherlink.com 1.10,2013-05-06 15:29:00,
2013-05-06 10:44:00,67.4,52.0,30.07,NNE,12,3.0,12.0,59,0.00,,,0.00,708,weatherlink.com 1.10,2013-05-06 15:44:00,
2013-05-06 10:59:00,67.9,53.0,30.07,NW,305,6.0,12.0,59,0.00,,,0.00,782,weatherlink.com 1.10,2013-05-06 15:59:00,
2013-05-06 11:14:00,68.0,53.0,30.07,WSW,247,7.0,12.0,60,0.00,,,0.00,817,weatherlink.com 1.10,2013-05-06 16:14:00,
2013-05-06 11:29:00,68.1,52.0,30.06,West,270,3.0,11.0,57,0.00,,,0.00,863,weatherlink.com 1.10,2013-05-06 16:29:00,
2013-05-06 11:44:00,69.1,53.0,30.05,WNW,289,6.0,11.0,56,0.00,,,0.00,860,weatherlink.com 1.10,2013-05-06 16:44:00,
2013-05-06 11:59:00,70.6,54.0,30.04,NW,326,4.0,10.0,56,0.00,,,0.00,134,weatherlink.com 1.10,2013-05-06 16:59:00,
2013-05-06 12:14:00,70.5,52.0,30.04,North,4,7.0,11.0,53,0.00,,,0.00,192,weatherlink.com 1.10,2013-05-06 17:14:00,
2013-05-06 12:29:00,70.9,54.0,30.04,WNW,287,5.0,11.0,55,0.00,,,0.00,895,weatherlink.com 1.10,2013-05-06 17:29:00,
2013-05-06 12:44:00,71.7,54.0,30.03,North,359,5.0,11.0,54,0.00,,,0.00,923,weatherlink.com 1.10,2013-05-06 17:44:00,
2013-05-06 12:59:00,72.0,54.0,30.02,WNW,285,5.0,9.0,53,0.00,,,0.00,1042,weatherlink.com 1.10,2013-05-06 17:59:00,
2013-05-06 13:14:00,72.5,54.0,30.01,NW,314,2.0,10.0,52,0.00,,,0.00,534,weatherlink.com 1.10,2013-05-06 18:14:00,
2013-05-06 13:29:00,72.7,53.0,30.00,NNW,328,5.0,9.0,51,0.00,,,0.00,759,weatherlink.com 1.10,2013-05-06 18:29:00,
2013-05-06 13:44:00,72.7,53.0,30.00,WSW,243,7.0,8.0,51,0.00,,,0.00,858,weatherlink.com 1.10,2013-05-06 18:44:00,
2013-05-06 13:59:00,73.3,53.0,29.99,WNW,290,6.0,10.0,50,0.00,,,0.00,608,weatherlink.com 1.10,2013-05-06 18:59:00,
2013-05-06 14:14:00,73.1,54.0,29.99,West,265,5.0,9.0,51,0.00,,,0.00,606,weatherlink.com 1.10,2013-05-06 19:14:00,
2013-05-06 14:29:00,73.8,53.0,29.98,West,272,8.0,12.0,49,0.00,,,0.00,705,weatherlink.com 1.10,2013-05-06 19:29:00,
2013-05-06 14:44:00,74.0,54.0,29.97,WNW,291,5.0,11.0,49,0.00,,,0.00,656,weatherlink.com 1.10,2013-05-06 19:44:00,
2013-05-06 14:59:00,73.5,53.0,29.96,WSW,238,4.0,8.0,49,0.00,,,0.00,476,weatherlink.com 1.10,2013-05-06 19:59:00,
2013-05-06 15:14:00,74.0,54.0,29.96,SW,227,6.0,8.0,49,0.00,,,0.00,417,weatherlink.com 1.10,2013-05-06 20:14:00,
2013-05-06 15:29:00,74.3,53.0,29.95,NNW,330,2.0,7.0,48,0.00,,,0.00,376,weatherlink.com 1.10,2013-05-06 20:29:00,
2013-05-06 15:44:00,73.8,53.0,29.95,SW,231,4.0,10.0,49,0.00,,,0.00,355,weatherlink.com 1.10,2013-05-06 20:44:00,
2013-05-06 15:59:00,73.8,53.0,29.95,West,279,3.0,8.0,48,0.00,,,0.00,318,weatherlink.com 1.10,2013-05-06 20:59:00,
2013-05-06 16:14:00,74.1,54.0,29.94,WSW,251,4.0,7.0,50,0.00,,,0.00,357,weatherlink.com 1.10,2013-05-06 21:14:00,
2013-05-06 16:29:00,74.0,54.0,29.94,WSW,238,6.0,9.0,50,0.00,,,0.00,359,weatherlink.com 1.10,2013-05-06 21:29:00,
2013-05-06 16:44:00,74.3,54.0,29.94,West,259,6.0,10.0,49,0.00,,,0.00,281,weatherlink.com 1.10,2013-05-06 21:44:00,
2013-05-06 16:59:00,74.0,54.0,29.94,WNW,283,3.0,6.0,49,0.00,,,0.00,234,weatherlink.com 1.10,2013-05-06 21:59:00,
2013-05-06 17:14:00,74.1,54.0,29.94,WSW,251,3.0,6.0,49,0.00,,,0.00,227,weatherlink.com 1.10,2013-05-06 22:14:00,
2013-05-06 17:29:00,74.2,54.0,29.94,West,260,3.0,5.0,49,0.00,,,0.00,213,weatherlink.com 1.10,2013-05-06 22:29:00,
2013-05-06 17:45:00,74.3,53.0,29.95,WSW,241,3.0,5.0,48,0.00,,,0.00,178,weatherlink.com 1.10,2013-05-06 22:45:00,
2013-05-06 18:00:00,74.2,53.0,29.94,WSW,237,2.0,7.0,48,0.00,,,0.00,178,weatherlink.com 1.10,2013-05-06 23:00:00,
2013-05-06 18:15:00,74.1,54.0,29.94,SW,218,5.0,8.0,49,0.00,,,0.00,155,weatherlink.com 1.10,2013-05-06 23:15:00,
2013-05-06 18:30:00,74.0,54.0,29.94,SW,226,6.0,9.0,49,0.00,,,0.00,118,weatherlink.com 1.10,2013-05-06 23:30:00,
2013-05-06 18:45:00,73.6,54.0,29.94,WSW,245,7.0,7.0,51,0.00,,,0.00,84,weatherlink.com 1.10,2013-05-06 23:45:00,
2013-05-06 19:00:00,73.1,54.0,29.93,WSW,247,5.0,6.0,51,0.00,,,0.00,60,weatherlink.com 1.10,2013-05-07 00:00:00,
2013-05-06 19:15:00,72.5,54.0,29.93,WSW,247,3.0,5.0,53,0.00,,,0.00,39,weatherlink.com 1.10,2013-05-07 00:15:00,
2013-05-06 19:30:00,72.0,54.0,29.93,WSW,249,2.0,4.0,53,0.00,,,0.00,21,weatherlink.com 1.10,2013-05-07 00:30:00,
2013-05-06 19:45:00,71.6,54.0,29.93,WSW,249,3.0,3.0,55,0.00,,,0.00,9,weatherlink.com 1.10,2013-05-07 00:45:00,
2013-05-06 20:00:00,71.3,56.0,29.94,WSW,249,2.0,3.0,58,0.00,,,0.00,0,weatherlink.com 1.10,2013-05-07 01:00:00,
2013-05-06 20:15:00,70.9,55.0,29.94,WSW,249,1.0,2.0,57,0.00,,,0.00,0,weatherlink.com 1.10,2013-05-07 01:15:00,
2013-05-06 20:30:00,70.3,55.0,29.94,WSW,249,0.0,1.0,59,0.00,,,0.00,0,weatherlink.com 1.10,2013-05-07 01:30:00,
2013-05-06 20:45:00,69.4,54.0,29.94,WSW,249,0.0,0.0,59,0.00,,,0.00,0,weatherlink.com 1.10,2013-05-07 01:45:00,
2013-05-06 21:00:00,69.4,55.0,29.95,WSW,249,2.0,2.0,60,0.00,,,0.00,0,weatherlink.com 1.10,2013-05-07 02:00:00,
2013-05-06 21:15:00,69.4,55.0,29.95,WSW,249,0.0,3.0,60,0.00,,,0.00,0,weatherlink.com 1.10,2013-05-07 02:15:00,
2013-05-06 21:30:00,68.7,55.0,29.95,WSW,249,0.0,1.0,62,0.00,,,0.00,0,weatherlink.com 1.10,2013-05-07 02:30:00,
2013-05-06 21:45:00,68.0,54.0,29.95,WSW,249,0.0,0.0,62,0.00,,,0.00,0,weatherlink.com 1.10,2013-05-07 02:45:00,
2013-05-06 22:00:00,67.4,55.0,29.96,WSW,249,0.0,0.0,65,0.00,,,0.00,0,weatherlink.com 1.10,2013-05-07 03:00:00,
2013-05-06 22:15:00,66.5,56.0,29.96,WSW,249,1.0,2.0,68,0.00,,,0.00,0,weatherlink.com 1.10,2013-05-07 03:15:00,
2013-05-06 22:30:00,66.3,56.0,29.96,WSW,249,0.0,0.0,69,0.00,,,0.00,0,weatherlink.com 1.10,2013-05-07 03:30:00,
2013-05-06 22:45:00,65.8,56.0,29.96,WSW,249,1.0,1.0,70,0.00,,,0.00,0,weatherlink.com 1.10,2013-05-07 03:45:00,
2013-05-06 23:00:00,65.3,56.0,29.96,WSW,249,0.0,3.0,73,0.00,,,0.00,0,weatherlink.com 1.10,2013-05-07 04:00:00,
2013-05-06 23:15:00,64.9,56.0,29.95,WSW,249,0.0,0.0,73,0.00,,,0.00,0,weatherlink.com 1.10,2013-05-07 04:15:00,
2013-05-06 23:30:00,64.9,56.0,29.95,WSW,249,0.0,0.0,73,0.00,,,0.00,0,weatherlink.com 1.10,2013-05-07 04:30:00,
2013-05-06 23:45:00,64.6,56.0,29.95,WSW,249,0.0,2.0,74,0.00,,,0.00,0,weatherlink.com 1.10,2013-05-07 04:45:00,